Time;durP1;ratioP1;P1;durP2;ratioP2;P2;SDS_P1;SDS_P2;PMS_P1;PMS_P2;Temp;Humidity;BMP_temperature;BMP_pressure;BME280_temperature;BME280_humidity;BME280_pressure;Samples;Min_cycle;Max_cycle;Signal;HPM_P1;HPM_P2
2022/08/07 00:01:36;;;;;;;5.38;3.75;;;11.20;99.90;;;;;;6157477;23;20135;-78
2022/08/07 00:04:03;;;;;;;5.45;3.58;;;11.10;99.90;;;;;;6156236;23;20858;-79
2022/08/07 00:06:29;;;;;;;3.83;3.42;;;11.10;99.90;;;;;;6183223;23;20017;-79
2022/08/07 00:08:54;;;;;;;9.02;3.80;;;11.10;99.90;;;;;;6184151;23;20513;-79
2022/08/07 00:11:20;;;;;;;5.82;4.25;;;11.10;99.90;;;;;;6183682;23;20489;-79
2022/08/07 00:13:46;;;;;;;8.02;3.00;;;11.10;99.90;;;;;;6158524;23;20017;-79
2022/08/07 00:16:12;;;;;;;5.18;3.40;;;11.10;99.90;;;;;;6183178;23;20059;-78
2022/08/07 00:18:38;;;;;;;5.50;3.38;;;11.00;99.90;;;;;;6184471;23;20017;-80
2022/08/07 00:21:05;;;;;;;3.38;2.95;;;11.00;99.90;;;;;;6157800;23;20027;-79
2022/08/07 00:23:32;;;;;;;4.35;3.53;;;11.00;99.90;;;;;;6184227;23;20013;-79
2022/08/07 00:25:59;;;;;;;4.20;2.97;;;11.00;99.90;;;;;;6184296;23;20714;-79
2022/08/07 00:28:25;;;;;;;5.25;3.03;;;11.00;99.90;;;;;;6183682;23;20024;-79
2022/08/07 00:30:51;;;;;;;4.53;3.75;;;11.00;99.90;;;;;;6154166;23;20020;-78
2022/08/07 00:33:16;;;;;;;6.07;3.58;;;11.00;99.90;;;;;;6183597;23;20016;-79
2022/08/07 00:35:42;;;;;;;4.45;3.80;;;11.00;99.90;;;;;;6157112;23;20019;-78
2022/08/07 00:38:07;;;;;;;4.82;3.22;;;10.90;99.90;;;;;;6183926;23;20512;-79
2022/08/07 00:40:33;;;;;;;3.83;3.22;;;10.90;99.90;;;;;;6182626;23;20057;-79
2022/08/07 00:42:59;;;;;;;4.95;3.83;;;10.90;99.90;;;;;;6184627;23;20024;-79
2022/08/07 00:45:24;;;;;;;4.20;3.80;;;10.90;99.90;;;;;;6183463;23;20056;-79
2022/08/07 00:47:50;;;;;;;5.35;4.82;;;10.90;99.90;;;;;;6182983;23;20022;-78
2022/08/07 00:50:16;;;;;;;5.75;3.90;;;10.90;99.90;;;;;;6182343;23;20535;-78
2022/08/07 00:52:42;;;;;;;7.38;4.72;;;10.90;99.90;;;;;;6184153;23;20501;-79
2022/08/07 00:55:08;;;;;;;6.10;4.82;;;10.90;99.90;;;;;;6158776;23;20013;-79
2022/08/07 00:57:34;;;;;;;5.05;4.20;;;10.90;99.90;;;;;;6183658;23;20009;-79
2022/08/07 01:00:01;;;;;;;4.63;4.22;;;10.90;99.90;;;;;;6183201;23;20073;-79
2022/08/07 01:02:27;;;;;;;3.97;3.63;;;10.80;99.90;;;;;;6155914;23;20039;-79
2022/08/07 01:04:52;;;;;;;7.00;4.07;;;10.70;99.90;;;;;;6184217;23;20083;-79
2022/08/07 01:07:21;;;;;;;6.07;4.18;;;10.60;99.90;;;;;;6158568;23;20450;-79
2022/08/07 01:09:47;;;;;;;4.30;3.58;;;10.60;99.90;;;;;;6183071;23;20013;-78
2022/08/07 01:12:14;;;;;;;4.82;4.32;;;10.60;99.90;;;;;;6183846;23;20021;-79
2022/08/07 01:14:40;;;;;;;4.90;4.10;;;10.60;99.90;;;;;;6181498;23;20450;-79
2022/08/07 01:17:07;;;;;;;7.68;4.95;;;10.60;99.90;;;;;;6184124;23;20095;-79
2022/08/07 01:19:34;;;;;;;6.93;4.68;;;10.60;99.90;;;;;;6182964;23;20044;-78
2022/08/07 01:22:00;;;;;;;5.53;5.03;;;10.60;99.90;;;;;;6185546;23;20058;-79
2022/08/07 01:24:27;;;;;;;5.10;4.35;;;10.70;99.90;;;;;;6182481;23;20024;-78
2022/08/07 01:26:53;;;;;;;5.43;4.40;;;10.70;99.90;;;;;;6183435;23;20900;-79
2022/08/07 01:29:23;;;;;;;4.30;3.88;;;10.70;99.90;;;;;;6184172;23;20017;-78
2022/08/07 01:31:50;;;;;;;5.03;3.95;;;10.70;99.90;;;;;;6179940;23;20654;-79
2022/08/07 01:34:16;;;;;;;5.00;4.00;;;10.70;99.90;;;;;;6182974;23;20017;-79
2022/08/07 01:36:42;;;;;;;6.35;4.43;;;10.70;99.90;;;;;;6183246;23;20108;-78
2022/08/07 01:39:08;;;;;;;4.50;3.63;;;10.60;99.90;;;;;;6183607;23;20393;-78
2022/08/07 01:41:34;;;;;;;4.32;3.88;;;10.50;99.90;;;;;;6157884;23;20441;-79
2022/08/07 01:44:01;;;;;;;7.88;4.43;;;10.40;99.90;;;;;;6183190;23;20097;-79
2022/08/07 01:46:26;;;;;;;7.55;3.90;;;10.40;99.90;;;;;;6182803;23;20017;-78
2022/08/07 01:48:52;;;;;;;5.35;4.43;;;10.30;99.90;;;;;;6184693;23;20060;-79
2022/08/07 01:51:20;;;;;;;7.50;4.35;;;10.30;99.90;;;;;;6156361;23;20037;-79
2022/08/07 01:53:49;;;;;;;5.50;4.93;;;10.30;99.90;;;;;;6182146;23;20016;-79
2022/08/07 01:56:19;;;;;;;5.47;4.53;;;10.30;99.90;;;;;;6154625;23;20092;-78
2022/08/07 01:58:51;;;;;;;8.38;4.78;;;10.20;99.90;;;;;;6182395;23;20024;-79
2022/08/07 02:01:23;;;;;;;6.15;4.10;;;10.20;99.90;;;;;;6156337;23;20025;-79
2022/08/07 02:03:57;;;;;;;4.78;3.88;;;10.20;99.90;;;;;;6184016;23;20027;-79
2022/08/07 02:06:25;;;;;;;5.10;4.18;;;10.20;99.90;;;;;;6180925;23;20021;-79
2022/08/07 02:08:54;;;;;;;4.82;4.05;;;10.20;99.90;;;;;;6180599;23;20040;-79
2022/08/07 02:11:20;;;;;;;6.65;4.00;;;10.20;99.90;;;;;;6181466;23;20024;-78
2022/08/07 02:13:46;;;;;;;5.80;3.67;;;10.20;99.90;;;;;;6184701;23;20348;-79
2022/08/07 02:16:14;;;;;;;6.57;3.95;;;10.10;99.90;;;;;;6157232;23;20017;-79
2022/08/07 02:18:42;;;;;;;4.65;4.03;;;10.10;99.90;;;;;;6155972;23;20020;-79
2022/08/07 02:21:08;;;;;;;4.72;4.30;;;10.10;99.90;;;;;;6183335;23;20063;-78
2022/08/07 02:23:38;;;;;;;8.63;5.32;;;10.10;99.90;;;;;;6183176;23;20529;-79
2022/08/07 02:26:06;;;;;;;4.78;4.38;;;10.10;99.90;;;;;;6182897;23;20099;-79
2022/08/07 02:28:34;;;;;;;5.15;4.65;;;10.10;99.90;;;;;;6157005;23;20017;-78
2022/08/07 02:31:02;;;;;;;6.00;5.40;;;10.20;99.90;;;;;;6183134;23;20051;-79
2022/08/07 02:33:29;;;;;;;4.75;4.35;;;10.20;99.90;;;;;;6180762;23;20076;-79
2022/08/07 02:35:56;;;;;;;4.97;3.95;;;10.20;99.90;;;;;;6181365;23;20013;-78
2022/08/07 02:38:26;;;;;;;4.53;3.30;;;10.10;99.90;;;;;;6181593;23;20024;-79
2022/08/07 02:40:53;;;;;;;3.83;3.40;;;10.00;99.90;;;;;;6154156;23;20040;-79
2022/08/07 02:43:19;;;;;;;5.45;3.63;;;10.00;99.90;;;;;;6182050;23;20017;-78
2022/08/07 02:45:46;;;;;;;5.40;3.40;;;10.00;99.90;;;;;;6156763;23;20025;-78
2022/08/07 02:48:12;;;;;;;4.82;3.45;;;9.90;99.90;;;;;;6182771;23;20094;-79
2022/08/07 02:50:42;;;;;;;3.45;3.15;;;10.00;99.90;;;;;;6179677;23;20052;-78
2022/08/07 02:53:11;;;;;;;4.10;2.80;;;10.00;99.90;;;;;;6182890;23;20485;-79
2022/08/07 02:55:42;;;;;;;3.28;2.90;;;10.00;99.90;;;;;;6182613;23;20357;-78
2022/08/07 02:58:11;;;;;;;3.92;3.30;;;9.90;99.90;;;;;;6157612;23;20092;-79
2022/08/07 03:00:39;;;;;;;8.52;4.20;;;9.90;99.90;;;;;;6182596;23;20044;-79
2022/08/07 03:03:07;;;;;;;4.63;3.70;;;9.90;99.90;;;;;;6183390;23;20013;-79
2022/08/07 03:05:35;;;;;;;4.57;4.03;;;9.90;99.90;;;;;;6130476;23;20067;-79
2022/08/07 03:08:03;;;;;;;5.18;4.35;;;9.90;99.90;;;;;;6158588;23;20048;-79
2022/08/07 03:10:29;;;;;;;4.90;3.75;;;9.90;99.90;;;;;;6157851;23;20025;-79
2022/08/07 03:12:56;;;;;;;3.60;3.25;;;9.80;99.90;;;;;;6184814;23;20079;-79
2022/08/07 03:15:22;;;;;;;3.20;2.70;;;9.80;99.90;;;;;;6183541;23;20472;-78
2022/08/07 03:17:48;;;;;;;3.95;2.40;;;9.80;99.90;;;;;;6183187;23;20087;-79
2022/08/07 03:20:14;;;;;;;3.58;2.63;;;9.70;99.90;;;;;;6184348;23;20009;-79
2022/08/07 03:22:42;;;;;;;2.67;2.35;;;9.70;99.90;;;;;;6184393;23;20017;-79
2022/08/07 03:25:08;;;;;;;3.92;2.83;;;9.70;99.90;;;;;;6184299;23;20070;-78
2022/08/07 03:27:34;;;;;;;3.63;2.78;;;9.60;99.90;;;;;;6157752;23;20020;-78
2022/08/07 03:30:00;;;;;;;4.72;3.50;;;9.70;99.90;;;;;;6156924;23;20020;-79
2022/08/07 03:32:32;;;;;;;3.53;3.15;;;9.70;99.90;;;;;;6183602;23;20031;-78
2022/08/07 03:35:01;;;;;;;4.15;3.70;;;9.70;99.90;;;;;;6179918;23;20012;-79
2022/08/07 03:37:29;;;;;;;5.45;3.10;;;9.70;99.90;;;;;;6183562;23;20473;-79
2022/08/07 03:39:55;;;;;;;4.35;3.38;;;9.60;99.90;;;;;;6182541;23;20016;-79
2022/08/07 03:42:22;;;;;;;4.13;3.72;;;9.60;99.90;;;;;;6158372;23;20048;-79
2022/08/07 03:44:48;;;;;;;4.28;3.65;;;9.60;99.90;;;;;;6156650;23;20452;-78
2022/08/07 03:47:14;;;;;;;7.72;4.03;;;9.60;99.90;;;;;;6184686;23;20013;-79
2022/08/07 03:49:41;;;;;;;5.25;4.43;;;9.60;99.90;;;;;;6148810;23;20017;-79
2022/08/07 03:52:08;;;;;;;5.57;3.88;;;9.60;99.90;;;;;;6152281;23;20076;-79
2022/08/07 03:54:34;;;;;;;4.95;4.53;;;9.70;99.90;;;;;;6152621;23;20040;-77
2022/08/07 03:57:01;;;;;;;5.22;4.15;;;9.70;99.90;;;;;;6127765;23;20020;-79
2022/08/07 03:59:27;;;;;;;6.13;4.70;;;9.70;99.90;;;;;;6151966;23;20013;-79
2022/08/07 04:01:55;;;;;;;7.35;5.45;;;9.70;99.90;;;;;;6125150;23;20025;-79
2022/08/07 04:04:21;;;;;;;7.53;4.45;;;9.70;99.90;;;;;;6155196;23;20368;-79
2022/08/07 04:06:46;;;;;;;6.78;4.40;;;9.70;99.90;;;;;;6126918;23;20044;-79
2022/08/07 04:09:14;;;;;;;4.47;3.08;;;9.60;99.90;;;;;;6151564;23;20017;-78
2022/08/07 04:11:40;;;;;;;7.13;2.63;;;9.60;99.90;;;;;;6124370;23;20017;-79
2022/08/07 04:14:06;;;;;;;3.08;2.50;;;9.60;99.90;;;;;;6125911;23;20018;-79
2022/08/07 04:16:32;;;;;;;5.68;3.50;;;9.60;99.90;;;;;;6127733;23;20018;-79
2022/08/07 04:18:59;;;;;;;5.85;3.10;;;9.60;99.90;;;;;;6127537;23;20048;-79
2022/08/07 04:21:24;;;;;;;5.40;2.33;;;9.70;99.90;;;;;;6126221;23;20028;-79
2022/08/07 04:23:50;;;;;;;3.33;3.03;;;9.80;99.90;;;;;;6128591;23;20021;-79
2022/08/07 04:26:16;;;;;;;6.47;3.35;;;9.70;99.90;;;;;;6153026;23;20029;-79
2022/08/07 04:28:42;;;;;;;4.07;2.47;;;9.70;99.90;;;;;;6126752;23;20029;-79
2022/08/07 04:31:09;;;;;;;5.43;2.72;;;9.70;99.90;;;;;;6151693;23;20052;-78
2022/08/07 04:33:39;;;;;;;2.45;2.25;;;9.80;99.90;;;;;;6150575;23;20712;-79
2022/08/07 04:36:07;;;;;;;2.88;2.67;;;9.80;99.90;;;;;;6126454;23;20076;-80
2022/08/07 04:38:34;;;;;;;3.65;3.35;;;9.80;99.90;;;;;;6154779;23;20615;-77
2022/08/07 04:40:59;;;;;;;3.22;2.80;;;9.90;99.90;;;;;;6151563;23;20517;-79
2022/08/07 04:43:37;;;;;;;2.58;2.38;;;10.00;99.90;;;;;;6125084;23;20021;-78
2022/08/07 04:46:19;;;;;;;9.13;2.97;;;10.00;99.90;;;;;;6153561;23;20020;-79
2022/08/07 04:49:10;;;;;;;5.75;2.38;;;10.00;99.90;;;;;;6154262;23;20084;-79
2022/08/07 04:51:52;;;;;;;3.83;2.55;;;10.00;99.90;;;;;;6125664;23;20053;-79
2022/08/07 04:54:22;;;;;;;3.60;3.17;;;10.20;99.90;;;;;;6152645;23;20014;-78
2022/08/07 04:56:59;;;;;;;3.60;3.30;;;10.30;99.90;;;;;;6152480;23;20111;-79
2022/08/07 04:59:38;;;;;;;7.68;3.40;;;10.70;99.90;;;;;;6126988;23;20017;-79
2022/08/07 05:02:10;;;;;;;4.93;3.50;;;11.00;99.90;;;;;;6154043;23;20026;-78
2022/08/07 05:04:52;;;;;;;4.65;3.05;;;11.20;99.90;;;;;;6150400;23;20021;-78
2022/08/07 05:07:28;;;;;;;3.22;2.92;;;11.20;99.90;;;;;;6152010;23;20061;-79
2022/08/07 05:09:59;;;;;;;3.55;3.25;;;11.40;99.90;;;;;;6150396;23;20018;-79
2022/08/07 05:12:33;;;;;;;5.82;3.40;;;11.50;99.90;;;;;;6153754;23;20018;-80
2022/08/07 05:15:15;;;;;;;4.47;3.92;;;11.50;99.90;;;;;;6151916;23;20766;-79
2022/08/07 05:17:48;;;;;;;4.68;3.58;;;11.70;99.90;;;;;;6153498;23;20028;-79
2022/08/07 05:20:23;;;;;;;5.15;4.65;;;12.00;99.90;;;;;;6152156;23;20020;-79
2022/08/07 05:22:53;;;;;;;4.07;3.78;;;12.30;99.90;;;;;;6151718;23;20354;-79
2022/08/07 05:25:20;;;;;;;5.70;3.08;;;13.40;99.90;;;;;;6126439;23;20013;-79
2022/08/07 05:27:47;;;;;;;4.05;3.17;;;15.00;99.90;;;;;;6126557;23;20041;-80
2022/08/07 05:30:16;;;;;;;6.72;3.05;;;16.70;99.90;;;;;;6150224;23;20013;-80
2022/08/07 05:32:45;;;;;;;2.70;2.47;;;18.20;99.90;;;;;;6127701;23;20021;-79
2022/08/07 05:35:12;;;;;;;3.80;2.90;;;19.80;99.90;;;;;;6153366;23;20017;-80
2022/08/07 05:37:40;;;;;;;4.60;2.60;;;21.30;99.90;;;;;;6153159;23;20554;-79
2022/08/07 05:40:06;;;;;;;4.93;2.90;;;22.40;99.90;;;;;;6127928;23;20051;-79
2022/08/07 05:42:32;;;;;;;3.30;2.95;;;23.40;99.90;;;;;;6153477;23;20072;-78
2022/08/07 05:44:58;;;;;;;6.35;3.13;;;24.00;99.90;;;;;;6128425;23;20018;-79
2022/08/07 05:47:24;;;;;;;3.40;3.20;;;25.10;99.90;;;;;;6155295;23;20045;-79
2022/08/07 05:49:52;;;;;;;2.83;2.63;;;26.00;99.90;;;;;;6163466;23;20013;-80
2022/08/07 05:52:18;;;;;;;3.55;3.25;;;26.60;99.90;;;;;;6156132;23;20021;-80
2022/08/07 05:54:44;;;;;;;4.30;3.75;;;27.60;99.90;;;;;;6156735;23;20017;-80
2022/08/07 05:57:11;;;;;;;5.88;4.18;;;28.30;99.90;;;;;;6183991;23;20016;-80
2022/08/07 05:59:38;;;;;;;6.22;5.63;;;29.10;99.00;;;;;;6182383;23;20023;-80
2022/08/07 06:02:06;;;;;;;6.72;5.80;;;29.30;97.20;;;;;;6182908;23;20048;-80
2022/08/07 06:04:36;;;;;;;9.77;6.18;;;29.80;96.00;;;;;;6183656;23;20077;-80
2022/08/07 06:07:04;;;;;;;5.95;5.45;;;30.20;94.70;;;;;;6155132;23;20017;-80
2022/08/07 06:09:31;;;;;;;7.78;5.63;;;30.80;94.00;;;;;;6182868;23;20375;-80
2022/08/07 06:11:57;;;;;;;5.97;5.47;;;30.60;92.60;;;;;;6182354;23;20346;-80
2022/08/07 06:14:23;;;;;;;8.98;5.40;;;30.90;92.30;;;;;;6183013;23;20032;-80
2022/08/07 06:16:50;;;;;;;6.60;5.90;;;31.10;91.50;;;;;;6183537;23;20027;-80
2022/08/07 06:19:17;;;;;;;9.45;6.07;;;31.20;90.70;;;;;;6180762;23;20605;-81
2022/08/07 06:21:45;;;;;;;6.93;6.22;;;30.40;90.40;;;;;;6183155;23;20005;-80
2022/08/07 06:24:11;;;;;;;6.78;6.15;;;29.40;90.80;;;;;;6184037;23;20017;-81
2022/08/07 06:26:42;;;;;;;7.68;6.38;;;28.40;91.60;;;;;;6180991;23;20467;-80
2022/08/07 06:29:08;;;;;;;8.18;6.15;;;27.50;92.10;;;;;;6156610;23;20084;-79
2022/08/07 06:31:34;;;;;;;8.40;5.95;;;26.90;92.50;;;;;;6182016;23;20111;-79
2022/08/07 06:34:00;;;;;;;6.72;6.13;;;26.40;92.50;;;;;;6181605;23;20493;-79
2022/08/07 06:36:26;;;;;;;7.30;6.50;;;26.00;92.70;;;;;;6179732;23;20037;-79
2022/08/07 06:38:52;;;;;;;7.20;6.53;;;25.70;92.60;;;;;;6156323;23;20100;-81
2022/08/07 06:41:37;;;;;;;6.97;6.13;;;25.30;93.10;;;;;;6182813;23;20024;-80
2022/08/07 06:44:05;;;;;;;6.65;6.05;;;25.20;93.60;;;;;;6187781;23;20020;-80
2022/08/07 06:46:31;;;;;;;8.20;6.72;;;25.00;93.70;;;;;;6156572;23;20048;-80
2022/08/07 06:48:56;;;;;;;7.45;6.82;;;24.80;94.10;;;;;;6157633;23;20017;-79
2022/08/07 06:51:27;;;;;;;7.43;6.68;;;24.60;94.30;;;;;;6182518;23;20024;-81
2022/08/07 06:53:55;;;;;;;8.02;7.00;;;24.40;94.50;;;;;;6157718;23;20041;-79
2022/08/07 06:56:38;;;;;;;7.50;6.90;;;24.40;94.70;;;;;;6185561;23;20084;-80
2022/08/07 06:59:11;;;;;;;7.38;6.22;;;24.00;94.50;;;;;;6157117;23;20019;-80
2022/08/07 07:01:37;;;;;;;7.43;6.57;;;24.00;94.90;;;;;;6184228;23;20017;-80
2022/08/07 07:04:04;;;;;;;5.97;5.40;;;23.90;95.00;;;;;;6185026;23;20032;-81
2022/08/07 07:06:31;;;;;;;4.90;4.50;;;24.10;94.40;;;;;;6183207;23;20028;-78
2022/08/07 07:09:28;;;;;;;5.80;5.28;;;24.20;94.20;;;;;;6185084;23;20013;-80
2022/08/07 07:12:05;;;;;;;7.20;4.90;;;24.30;93.90;;;;;;6188027;23;20013;-81
2022/08/07 07:14:55;;;;;;;5.45;4.97;;;24.10;93.80;;;;;;6189420;23;20028;-81
2022/08/07 07:17:34;;;;;;;5.80;5.07;;;24.00;93.90;;;;;;6189091;23;20017;-80
2022/08/07 07:20:04;;;;;;;5.28;4.80;;;23.90;94.10;;;;;;6187024;23;20439;-80
2022/08/07 07:22:31;;;;;;;6.18;5.55;;;23.80;94.50;;;;;;6189164;23;20013;-80
2022/08/07 07:28:54;;;;;;;3.50;2.90;;;24.00;94.20;;;;;;6158381;23;20024;-80
2022/08/07 07:31:32;;;;;;;2.58;2.25;;;24.10;93.20;;;;;;6184606;23;20017;-81
2022/08/07 07:34:03;;;;;;;2.47;1.80;;;24.20;93.10;;;;;;6189567;23;20023;-80
2022/08/07 07:36:30;;;;;;;3.03;2.22;;;24.30;92.70;;;;;;6185706;23;20005;-80
2022/08/07 07:38:57;;;;;;;3.72;2.25;;;24.20;92.70;;;;;;6183346;23;20075;-80
2022/08/07 07:41:24;;;;;;;1.80;1.52;;;24.20;92.70;;;;;;6157403;23;20028;-79
2022/08/07 07:46:07;;;;;;;3.55;2.13;;;24.10;91.90;;;;;;5090127;27;20462;-76
2022/08/07 07:48:34;;;;;;;2.45;1.80;;;24.40;92.10;;;;;;5079586;28;20735;-76
2022/08/07 07:51:01;;;;;;;3.42;1.65;;;24.20;91.50;;;;;;5069975;28;20487;-77
2022/08/07 07:53:28;;;;;;;2.08;1.55;;;24.30;91.80;;;;;;5070195;28;20067;-75
2022/08/07 07:55:57;;;;;;;3.35;1.70;;;24.40;92.00;;;;;;5072642;28;20045;-77
2022/08/07 07:58:25;;;;;;;2.88;1.98;;;24.50;92.80;;;;;;5068573;28;20155;-76
2022/08/07 08:00:53;;;;;;;2.95;2.08;;;24.50;92.80;;;;;;5068308;28;20044;-78
2022/08/07 08:03:21;;;;;;;5.97;1.90;;;24.50;92.20;;;;;;5072905;28;20047;-77
2022/08/07 08:05:47;;;;;;;1.83;1.73;;;24.70;92.70;;;;;;5068688;28;20124;-77
2022/08/07 08:08:14;;;;;;;3.67;2.20;;;24.80;92.60;;;;;;5071757;28;20078;-77
2022/08/07 08:10:40;;;;;;;3.13;2.08;;;24.90;92.30;;;;;;5070592;28;20068;-77
2022/08/07 08:13:08;;;;;;;2.10;1.70;;;24.90;92.00;;;;;;5071486;28;20380;-77
2022/08/07 08:15:37;;;;;;;5.97;2.15;;;24.80;91.70;;;;;;5071799;28;20046;-76
2022/08/07 08:18:09;;;;;;;1.85;1.20;;;25.00;92.20;;;;;;5071618;28;20080;-77
2022/08/07 08:20:37;;;;;;;2.55;1.10;;;25.00;92.20;;;;;;5071507;28;20028;-78
2022/08/07 08:28:36;;;;;;;1.77;1.20;;;25.20;92.30;;;;;;5072752;28;20060;-77
2022/08/07 08:31:04;;;;;;;1.15;1.02;;;25.10;91.50;;;;;;5071789;28;20070;-77
2022/08/07 08:33:33;;;;;;;3.10;1.40;;;25.20;91.30;;;;;;5071258;28;20044;-77
2022/08/07 08:36:00;;;;;;;1.52;1.15;;;24.90;91.10;;;;;;5074022;28;20174;-77
2022/08/07 08:38:31;;;;;;;2.33;1.60;;;24.70;92.00;;;;;;5074366;28;20231;-76
2022/08/07 08:41:13;;;;;;;1.92;1.20;;;24.70;91.70;;;;;;5069698;28;20044;-77
2022/08/07 08:43:49;;;;;;;2.17;1.60;;;24.80;91.50;;;;;;5070621;28;20052;-78
2022/08/07 08:46:29;;;;;;;2.38;1.20;;;24.80;91.00;;;;;;5073662;28;20044;-75
2022/08/07 08:49:05;;;;;;;1.40;1.10;;;25.00;92.10;;;;;;5073827;28;20041;-80
2022/08/07 08:51:37;;;;;;;1.10;1.00;;;25.00;91.30;;;;;;5075904;28;20032;-77
2022/08/07 08:54:23;;;;;;;1.98;1.00;;;25.00;91.00;;;;;;5072618;28;20048;-79
2022/08/07 08:56:51;;;;;;;2.63;1.70;;;25.00;90.30;;;;;;5062799;28;20033;-80
2022/08/07 08:59:40;;;;;;;1.70;1.08;;;25.10;90.90;;;;;;5058477;28;20438;-80
2022/08/07 09:02:26;;;;;;;2.15;0.82;;;25.20;90.90;;;;;;5058654;28;20047;-79
2022/08/07 09:05:41;;;;;;;2.33;1.23;;;25.10;90.80;;;;;;5055894;28;20522;-80
2022/08/07 09:08:45;;;;;;;2.63;1.25;;;25.30;91.10;;;;;;5058144;28;20056;-79
2022/08/07 09:11:17;;;;;;;2.08;1.23;;;25.30;91.20;;;;;;5059790;28;20037;-80
2022/08/07 09:14:05;;;;;;;3.97;1.50;;;25.30;91.10;;;;;;5058094;28;20044;-80
2022/08/07 09:16:53;;;;;;;2.97;1.60;;;25.30;90.80;;;;;;5058916;28;20041;-79
2022/08/07 09:19:42;;;;;;;2.72;1.23;;;25.20;91.30;;;;;;5057679;28;20045;-80
2022/08/07 09:22:11;;;;;;;3.33;1.63;;;25.10;91.10;;;;;;5054356;28;20036;-80
2022/08/07 09:24:57;;;;;;;2.63;1.23;;;25.00;90.90;;;;;;5063743;28;20044;-79
2022/08/07 09:27:32;;;;;;;1.85;1.23;;;24.80;89.90;;;;;;5058242;28;20037;-80
2022/08/07 09:30:06;;;;;;;3.53;1.55;;;24.50;90.80;;;;;;5058037;28;20044;-80
2022/08/07 09:33:19;;;;;;;2.08;1.20;;;24.50;91.60;;;;;;5055958;28;20037;-80
2022/08/07 09:35:59;;;;;;;2.25;1.13;;;24.40;91.70;;;;;;5061292;28;20045;-79
2022/08/07 09:38:44;;;;;;;1.77;1.23;;;24.50;91.10;;;;;;5060006;28;20380;-79
2022/08/07 09:41:39;;;;;;;4.80;1.60;;;24.70;91.40;;;;;;5063724;28;20109;-80
2022/08/07 09:44:43;;;;;;;1.17;0.93;;;24.90;90.70;;;;;;5058135;28;20514;-80
2022/08/07 09:47:32;;;;;;;2.08;1.00;;;25.00;91.20;;;;;;5057129;28;20049;-80
2022/08/07 09:50:05;;;;;;;2.60;1.23;;;25.30;90.90;;;;;;5054559;28;20040;-80
2022/08/07 09:52:30;;;;;;;2.17;0.95;;;25.40;90.40;;;;;;5056203;28;20047;-82
2022/08/07 09:55:34;;;;;;;1.33;0.90;;;25.50;89.90;;;;;;5053648;28;20048;-80
2022/08/07 09:58:23;;;;;;;2.75;1.05;;;25.70;89.20;;;;;;5052344;28;20052;-76
2022/08/07 10:01:05;;;;;;;1.90;0.85;;;25.60;88.70;;;;;;5054610;28;20044;-79
2022/08/07 10:03:45;;;;;;;2.35;0.98;;;25.50;89.50;;;;;;5060124;28;20406;-80
2022/08/07 10:06:26;;;;;;;1.45;1.20;;;25.50;88.00;;;;;;5056548;28;20076;-78
2022/08/07 10:09:12;;;;;;;2.08;1.10;;;25.60;89.30;;;;;;5057157;28;20047;-80
2022/08/07 10:11:57;;;;;;;2.53;0.77;;;25.50;88.10;;;;;;5054931;28;20071;-79
2022/08/07 10:14:59;;;;;;;2.10;0.65;;;25.60;88.80;;;;;;5056846;28;20508;-77
2022/08/07 10:17:55;;;;;;;2.88;0.90;;;25.90;88.60;;;;;;5055352;28;20055;-78
2022/08/07 10:20:26;;;;;;;;;;;25.90;87.80;;;;;;5057131;28;20249;-80
2022/08/07 10:23:21;;;;;;;2.30;1.20;;;25.90;88.00;;;;;;5057673;28;20363;-77
2022/08/07 10:26:06;;;;;;;3.87;1.27;;;25.90;84.40;;;;;;5056844;28;20049;-80
2022/08/07 10:29:06;;;;;;;0.98;0.80;;;25.90;86.90;;;;;;5057922;28;20036;-81
2022/08/07 10:32:10;;;;;;;2.38;1.40;;;26.00;86.20;;;;;;5055666;28;20044;-81
2022/08/07 10:35:03;;;;;;;1.02;0.93;;;26.10;84.90;;;;;;5046652;28;20045;-80
2022/08/07 10:37:58;;;;;;;1.60;1.00;;;26.10;85.60;;;;;;5055374;28;20135;-79
2022/08/07 10:40:35;;;;;;;1.52;0.82;;;26.00;86.00;;;;;;5051175;28;20058;-81
2022/08/07 10:43:06;;;;;;;3.95;1.10;;;25.90;85.90;;;;;;5054404;28;20059;-80
2022/08/07 10:45:35;;;;;;;1.83;1.00;;;25.90;88.30;;;;;;5055651;28;20052;-82
2022/08/07 10:48:19;;;;;;;2.05;0.95;;;25.90;86.10;;;;;;5053640;28;20063;-83
2022/08/07 10:50:50;;;;;;;3.45;0.75;;;26.00;85.00;;;;;;5052599;28;20037;-83
2022/08/07 10:53:38;;;;;;;1.70;0.98;;;26.10;85.40;;;;;;5050799;28;20385;-80
2022/08/07 10:56:12;;;;;;;2.30;1.02;;;26.20;85.70;;;;;;5052800;28;20051;-82
2022/08/07 10:58:54;;;;;;;3.55;0.77;;;26.10;82.80;;;;;;5052918;28;20072;-83
2022/08/07 11:01:50;;;;;;;2.60;0.95;;;26.10;83.30;;;;;;5056809;28;20095;-82
2022/08/07 11:04:49;;;;;;;1.40;0.77;;;26.10;82.90;;;;;;5056250;28;20049;-79
2022/08/07 11:07:40;;;;;;;1.50;0.80;;;26.00;82.10;;;;;;5052018;28;20060;-80
2022/08/07 11:10:17;;;;;;;1.58;0.85;;;25.90;81.00;;;;;;5055779;28;20106;-81
2022/08/07 11:12:50;;;;;;;1.05;0.77;;;25.90;82.00;;;;;;5056063;28;20045;-80
2022/08/07 11:15:22;;;;;;;1.38;0.93;;;25.90;81.70;;;;;;5053463;28;20041;-81
2022/08/07 11:18:16;;;;;;;1.38;0.90;;;25.70;82.50;;;;;;5054777;28;20500;-82
2022/08/07 11:20:52;;;;;;;1.33;1.00;;;25.60;83.30;;;;;;5056312;28;20045;-80
2022/08/07 11:23:29;;;;;;;1.05;0.80;;;25.40;83.70;;;;;;5055734;28;20044;-79
2022/08/07 11:26:10;;;;;;;1.52;0.90;;;25.60;84.40;;;;;;5053869;28;20103;-78
2022/08/07 11:28:50;;;;;;;1.88;0.90;;;25.60;81.60;;;;;;5052848;28;20032;-81
2022/08/07 11:31:40;;;;;;;1.35;1.20;;;25.60;82.30;;;;;;5051208;28;20056;-79
2022/08/07 11:34:11;;;;;;;1.45;0.90;;;25.70;83.30;;;;;;5056539;28;20128;-80
2022/08/07 11:37:12;;;;;;;16.35;2.33;;;25.80;82.50;;;;;;5055107;28;20040;-79
2022/08/07 11:40:02;;;;;;;3.55;0.90;;;25.80;82.40;;;;;;5051215;28;20045;-77
2022/08/07 11:42:49;;;;;;;2.33;0.98;;;25.70;84.80;;;;;;5057173;28;20090;-80
2022/08/07 11:45:26;;;;;;;3.30;1.10;;;25.80;83.10;;;;;;5054306;28;20223;-80
2022/08/07 11:48:11;;;;;;;2.08;1.17;;;25.80;81.90;;;;;;5050785;28;20445;-80
2022/08/07 11:50:57;;;;;;;4.22;1.60;;;25.90;82.40;;;;;;5053469;28;20498;-83
2022/08/07 11:53:39;;;;;;;2.63;1.15;;;25.90;80.00;;;;;;5053162;28;20041;-82
2022/08/07 11:56:26;;;;;;;2.85;1.40;;;25.90;79.60;;;;;;5054345;28;20049;-79
2022/08/07 11:59:05;;;;;;;1.45;0.60;;;25.90;81.00;;;;;;5054135;28;20041;-83
2022/08/07 12:01:43;;;;;;;16.08;1.83;;;25.90;82.50;;;;;;5038331;28;20045;-83
2022/08/07 12:04:46;;;;;;;1.10;0.93;;;26.00;83.40;;;;;;5054233;28;20760;-80
2022/08/07 12:07:22;;;;;;;77.45;7.07;;;26.10;82.50;;;;;;5061125;28;20475;-82
2022/08/07 12:10:08;;;;;;;2.97;0.93;;;26.10;83.60;;;;;;5053893;28;20086;-82
2022/08/07 12:12:45;;;;;;;3.22;0.93;;;26.30;81.40;;;;;;5056184;28;20044;-82
2022/08/07 12:15:22;;;;;;;3.85;0.90;;;26.30;81.90;;;;;;5055775;28;20099;-82
2022/08/07 12:17:52;;;;;;;4.85;1.10;;;25.90;78.60;;;;;;5053138;28;20389;-82
2022/08/07 12:20:50;;;;;;;2.70;1.02;;;25.80;79.80;;;;;;5052322;28;20045;-83
2022/08/07 12:23:49;;;;;;;3.05;0.70;;;25.80;82.30;;;;;;5051402;28;20044;-84
2022/08/07 12:26:30;;;;;;;1.35;0.80;;;25.90;79.80;;;;;;5044137;28;20487;-79
2022/08/07 12:29:11;;;;;;;0.98;0.68;;;26.00;80.00;;;;;;5052360;28;20344;-80
2022/08/07 12:32:00;;;;;;;4.13;0.63;;;26.10;77.70;;;;;;5057546;28;20835;-82
2022/08/07 12:34:30;;;;;;;0.90;0.70;;;26.00;73.80;;;;;;5058342;28;20048;-82
2022/08/07 12:36:57;;;;;;;1.75;0.65;;;26.00;77.50;;;;;;5058762;28;20415;-79
2022/08/07 12:39:25;;;;;;;3.42;0.85;;;26.00;77.10;;;;;;5056363;28;20040;-82
2022/08/07 12:41:54;;;;;;;1.63;0.65;;;26.00;78.60;;;;;;5059474;28;20044;-83
2022/08/07 12:44:23;;;;;;;3.78;1.20;;;26.10;77.00;;;;;;5058411;28;20076;-81
2022/08/07 12:47:12;;;;;;;38.85;2.28;;;26.20;79.90;;;;;;5057383;28;20045;-82
2022/08/07 12:50:05;;;;;;;1.15;0.68;;;26.30;80.00;;;;;;5062222;28;20055;-81
2022/08/07 12:52:33;;;;;;;0.88;0.77;;;26.30;79.40;;;;;;5057385;28;20090;-82
2022/08/07 12:55:22;;;;;;;16.85;1.48;;;26.20;80.60;;;;;;5061691;28;20114;-79
2022/08/07 12:57:50;;;;;;;10.45;1.33;;;26.10;80.20;;;;;;5057553;28;20499;-82
2022/08/07 13:00:16;;;;;;;1.63;0.82;;;26.10;81.20;;;;;;5054836;28;20044;-82
2022/08/07 13:03:00;;;;;;;4.25;0.90;;;25.90;80.40;;;;;;5057078;28;20063;-82
2022/08/07 13:05:41;;;;;;;8.00;1.48;;;25.80;82.60;;;;;;5057995;28;20041;-81
2022/08/07 13:08:32;;;;;;;7.28;1.25;;;25.80;82.70;;;;;;5059787;28;20120;-82
2022/08/07 13:11:53;;;;;;;3.92;0.95;;;25.80;81.30;;;;;;5055945;28;20041;-83
2022/08/07 13:14:35;;;;;;;10.45;1.15;;;25.80;83.20;;;;;;5050476;28;20053;-82
2022/08/07 13:17:11;;;;;;;7.85;1.30;;;26.00;82.80;;;;;;5058777;28;20080;-79
2022/08/07 13:20:01;;;;;;;25.45;2.38;;;26.00;83.20;;;;;;5056690;28;20455;-81
2022/08/07 13:22:54;;;;;;;2.85;0.90;;;26.00;82.90;;;;;;5047058;28;20055;-81
2022/08/07 13:25:37;;;;;;;1.98;0.90;;;25.80;82.10;;;;;;5060433;28;20048;-81
2022/08/07 13:28:08;;;;;;;11.95;2.13;;;25.90;82.30;;;;;;5061102;28;20170;-82
2022/08/07 13:30:41;;;;;;;4.72;0.70;;;25.90;84.10;;;;;;5060163;28;20049;-79
2022/08/07 13:33:20;;;;;;;8.40;1.10;;;26.10;84.30;;;;;;5056018;28;20285;-81